KAFW/AFW METAR and TAF weather

Enter ICAO airport designator
Station Type Date Time Source
KAFW METAR 2022/07/03 14:53 UTC NOAA

KAFW 031453Z 18008KT 10SM FEW250 31/23 A3000 RMK AO2 SLP140 T03110233 51012


Station Type Date Time Source
KAFW Decoded METAR 2022/07/03 14:53 UTC NOAA

FORT WORTH ALLIANCE AIRPORT, TX, United States (KAFW) 32-59N 097-19W 233M
Jul 03, 2022 - 10:53 AM EDT / 2022.07.03 1453 UTC
Wind: from the S (180 degrees) at 9 MPH (8 KT):0
Visibility: 10 mile(s):0
Sky conditions: mostly clear
Temperature: 88.0 F (31.1 C)
Heat index: 96.6 F (35.9 C):1
Dew Point: 73.9 F (23.3 C)
Relative Humidity: 63%
Pressure (altimeter): 30 in. Hg (1015 hPa)
Pressure tendency: 0.04 inches (1.2 hPa) higher than three hours ago
ob: KAFW 031453Z 18008KT 10SM FEW250 31/23 A3000 RMK AO2 SLP140 T03110233 51012
cycle: 15

Station Type Date Time Source
KAFW TAF 2022/07/03 15:03 UTC NOAA

TAF
AMD KAFW 031500Z 0315/0412 18010KT P6SM SCT100
FM031900 17010KT P6SM VCTS SCT060CB
FM032300 18010KT P6SM FEW080 SCT250

Example: see airport list